createdAt,value
2022-12-08T00:02:00.031Z,90.98
2022-12-08T00:05:28.277Z,90.65
2022-12-08T00:08:55.239Z,91.51
2022-12-08T00:12:09.895Z,90.82
2022-12-08T00:15:22.099Z,90.57
2022-12-08T00:18:34.143Z,90.67
2022-12-08T00:21:45.998Z,90.97
2022-12-08T00:24:57.804Z,90.77
2022-12-08T00:28:09.947Z,90.63
2022-12-08T00:31:21.720Z,90.67
2022-12-08T00:34:34.731Z,90.34
2022-12-08T00:37:46.525Z,90.58
2022-12-08T00:40:58.296Z,89.93
2022-12-08T00:44:10.440Z,90.28
2022-12-08T00:47:24.880Z,90.01
2022-12-08T00:50:37.714Z,89.91
2022-12-08T00:53:50.101Z,89.59
2022-12-08T00:57:02.009Z,90.08
2022-12-08T01:00:17.190Z,90.08
2022-12-08T01:03:29.094Z,90.09
2022-12-08T01:06:44.323Z,90.05
2022-12-08T01:09:57.753Z,90.23
2022-12-08T01:13:09.745Z,89.84
2022-12-08T01:16:29.956Z,90.00
2022-12-08T01:19:43.391Z,90.05
2022-12-08T01:22:55.190Z,90.04
2022-12-08T01:26:12.555Z,90.11
2022-12-08T01:29:24.452Z,90.31
2022-12-08T01:32:36.182Z,90.66
2022-12-08T01:35:47.957Z,90.77
2022-12-08T01:39:03.208Z,90.78
2022-12-08T01:42:25.305Z,91.82
2022-12-08T01:45:38.526Z,91.53
2022-12-08T01:48:50.632Z,91.86
2022-12-08T01:52:07.549Z,92.09
2022-12-08T01:55:25.157Z,92.45
2022-12-08T01:58:42.040Z,92.63
2022-12-08T02:01:54.018Z,92.33
2022-12-08T02:05:09.686Z,92.86
2022-12-08T02:08:22.268Z,92.96
2022-12-08T02:11:34.187Z,93.20
2022-12-08T02:14:48.078Z,93.59
2022-12-08T02:18:08.877Z,94.06
2022-12-08T02:21:26.394Z,93.67
2022-12-08T02:24:43.182Z,93.92
2022-12-08T02:28:03.213Z,93.93
2022-12-08T02:31:23.404Z,94.33
2022-12-08T02:34:40.535Z,94.50
2022-12-08T02:37:53.151Z,94.65
2022-12-08T02:41:12.653Z,94.89
2022-12-08T02:44:31.987Z,95.21
2022-12-08T02:47:44.487Z,95.30
2022-12-08T02:50:56.274Z,95.36
2022-12-08T02:54:09.964Z,95.46
2022-12-08T02:57:30.325Z,95.69
2022-12-08T03:00:50.391Z,95.71
2022-12-08T03:04:10.380Z,95.54
2022-12-08T03:07:27.980Z,95.69
2022-12-08T03:10:45.451Z,95.59
2022-12-08T03:14:01.800Z,95.35
2022-12-08T03:17:14.653Z,95.27
2022-12-08T03:20:30.557Z,95.71
2022-12-08T03:23:45.022Z,95.54
2022-12-08T03:27:02.042Z,95.59
2022-12-08T03:30:17.342Z,95.43
2022-12-08T03:33:33.426Z,95.06
2022-12-08T03:36:45.658Z,94.89
2022-12-08T03:39:57.680Z,95.03
2022-12-08T03:43:09.773Z,95.06
2022-12-08T03:49:33.537Z,95.34
2022-12-08T03:52:45.336Z,95.06
2022-12-08T03:55:58.664Z,95.48
2022-12-08T03:59:12.093Z,95.44
2022-12-08T04:02:24.147Z,95.34
2022-12-08T04:05:36.048Z,95.62
2022-12-08T04:08:48.440Z,95.07
2022-12-08T04:12:00.160Z,95.31
2022-12-08T04:15:15.185Z,94.74
2022-12-08T04:18:27.287Z,94.54
2022-12-08T04:21:39.281Z,94.89
2022-12-08T04:24:51.038Z,94.56
2022-12-08T04:28:03.150Z,94.41
2022-12-08T04:31:15.510Z,94.28
2022-12-08T04:34:27.505Z,94.34
2022-12-08T04:37:39.345Z,94.26
2022-12-08T04:40:51.340Z,93.90
2022-12-08T04:44:03.293Z,93.35
2022-12-08T04:47:15.201Z,93.40
2022-12-08T04:50:27.703Z,93.70
2022-12-08T04:53:44.861Z,93.23
2022-12-08T04:56:53.605Z,93.48
2022-12-08T05:00:05.629Z,93.43
2022-12-08T05:03:23.833Z,93.11
2022-12-08T05:06:33.448Z,93.21
2022-12-08T05:09:45.374Z,92.96
2022-12-08T05:12:57.368Z,92.89
2022-12-08T05:16:15.715Z,93.07
2022-12-08T05:19:27.876Z,93.25
2022-12-08T05:22:39.972Z,93.05
2022-12-08T05:25:51.913Z,93.04
2022-12-08T05:29:04.027Z,92.91
2022-12-08T05:32:15.815Z,92.94
2022-12-08T05:35:27.634Z,92.98
2022-12-08T05:38:39.742Z,92.71
2022-12-08T05:41:51.475Z,93.13
2022-12-08T05:45:03.300Z,92.98
2022-12-08T05:48:15.261Z,93.09
2022-12-08T05:51:29.360Z,93.11
2022-12-08T05:54:41.502Z,93.49
2022-12-08T05:57:53.367Z,93.55
2022-12-08T06:01:05.266Z,93.89
2022-12-08T06:04:17.785Z,94.61
2022-12-08T06:07:29.676Z,93.90
2022-12-08T06:10:41.677Z,94.09
2022-12-08T06:13:54.087Z,94.47
2022-12-08T06:17:06.102Z,94.39
2022-12-08T06:20:19.077Z,94.09
2022-12-08T06:23:30.830Z,93.90
2022-12-08T06:26:43.534Z,94.02
2022-12-08T06:29:55.532Z,94.21
2022-12-08T06:33:07.422Z,93.86
2022-12-08T06:36:21.701Z,93.75
2022-12-08T06:39:33.935Z,93.63
2022-12-08T06:42:49.568Z,93.75
2022-12-08T06:46:02.228Z,93.71
2022-12-08T06:49:14.305Z,94.04
2022-12-08T06:52:26.124Z,93.97
2022-12-08T06:58:52.923Z,93.99
2022-12-08T07:02:05.235Z,93.82
2022-12-08T07:05:17.599Z,93.74
2022-12-08T07:08:29.685Z,93.25
2022-12-08T07:11:43.800Z,93.60
2022-12-08T07:14:55.645Z,93.29
2022-12-08T07:18:07.656Z,92.76
2022-12-08T07:21:21.602Z,93.17
2022-12-08T07:24:33.639Z,92.53
2022-12-08T07:27:45.316Z,92.47
2022-12-08T07:30:57.253Z,92.35
2022-12-08T07:34:09.220Z,92.46
2022-12-08T07:37:20.932Z,92.47
2022-12-08T07:40:32.878Z,92.27
2022-12-08T07:43:44.938Z,92.52
2022-12-08T07:46:56.781Z,92.23
2022-12-08T07:50:09.308Z,92.17
2022-12-08T07:53:21.147Z,92.57
2022-12-08T07:56:32.884Z,92.10
2022-12-08T07:59:45.227Z,91.79
2022-12-08T08:02:57.224Z,91.66
2022-12-08T08:06:12.523Z,91.30
2022-12-08T08:09:24.327Z,90.86
2022-12-08T08:12:36.248Z,90.67
2022-12-08T08:15:48.284Z,89.73
2022-12-08T08:19:00.891Z,89.15
2022-12-08T08:22:12.643Z,88.89
2022-12-08T08:25:26.951Z,88.21
2022-12-08T08:28:39.372Z,87.82
2022-12-08T08:31:51.060Z,87.54
2022-12-08T08:35:02.807Z,87.25
2022-12-08T08:38:14.602Z,86.92
2022-12-08T08:41:26.355Z,86.86
2022-12-08T08:44:38.944Z,86.04
2022-12-08T08:47:50.954Z,86.46
2022-12-08T08:51:06.139Z,86.43
2022-12-08T08:54:18.097Z,86.22
2022-12-08T08:57:30.165Z,85.46
2022-12-08T09:00:42.056Z,85.22
2022-12-08T09:03:54.650Z,85.42
2022-12-08T09:07:06.669Z,84.64
2022-12-08T09:10:19.280Z,85.53
2022-12-08T09:13:31.028Z,85.16
2022-12-08T09:16:43.083Z,84.64
2022-12-08T09:19:55.169Z,84.59
2022-12-08T09:23:07.035Z,84.18
2022-12-08T09:26:21.133Z,84.29
2022-12-08T09:29:36.138Z,84.08
2022-12-08T09:32:49.717Z,84.18
2022-12-08T09:36:01.680Z,84.19
2022-12-08T09:39:13.588Z,84.64
2022-12-08T09:42:31.380Z,84.89
2022-12-08T09:45:43.841Z,84.93
2022-12-08T09:49:01.396Z,84.38
2022-12-08T09:52:17.478Z,84.37
2022-12-08T09:55:36.728Z,84.38
2022-12-08T09:58:55.987Z,84.50
2022-12-08T10:02:11.195Z,84.01
2022-12-08T10:05:24.024Z,84.63
2022-12-08T10:08:43.534Z,84.55
2022-12-08T10:12:00.748Z,83.98
2022-12-08T10:15:24.049Z,84.36
2022-12-08T10:18:39.874Z,83.95
2022-12-08T10:21:52.027Z,84.38
2022-12-08T10:25:11.612Z,84.14
2022-12-08T10:28:23.635Z,84.58
2022-12-08T10:31:37.577Z,84.80
2022-12-08T10:35:08.951Z,84.27
2022-12-08T10:38:30.544Z,84.64
2022-12-08T10:41:42.322Z,84.81
2022-12-08T10:45:05.233Z,84.33
2022-12-08T10:48:23.613Z,84.50
2022-12-08T10:51:45.174Z,84.16
2022-12-08T10:55:00.562Z,85.35
2022-12-08T10:58:28.799Z,84.63
2022-12-08T11:01:46.124Z,85.58
2022-12-08T11:05:04.377Z,84.49
2022-12-08T11:08:17.642Z,85.10
2022-12-08T11:11:43.092Z,85.47
2022-12-08T11:15:03.740Z,85.69
2022-12-08T11:18:28.339Z,86.87
2022-12-08T11:21:43.201Z,85.79
2022-12-08T11:25:06.048Z,86.08
2022-12-08T11:28:18.321Z,85.75
2022-12-08T11:31:37.736Z,85.71
2022-12-08T11:34:55.262Z,85.66
2022-12-08T11:38:21.695Z,85.39
2022-12-08T11:41:31.903Z,85.25
2022-12-08T11:44:49.524Z,85.32
2022-12-08T11:48:08.278Z,85.22
2022-12-08T11:51:25.847Z,85.11
2022-12-08T11:54:43.782Z,85.29
2022-12-08T11:57:57.421Z,84.93
2022-12-08T12:01:09.866Z,85.21
2022-12-08T12:04:31.531Z,85.82
2022-12-08T12:08:01.989Z,85.51
2022-12-08T12:11:23.122Z,85.59
2022-12-08T12:14:54.581Z,85.80
2022-12-08T12:18:16.783Z,86.44
2022-12-08T12:21:30.445Z,85.90
2022-12-08T12:24:45.104Z,85.53
2022-12-08T12:28:00.598Z,85.44
2022-12-08T12:31:16.582Z,85.57
2022-12-08T12:34:31.957Z,85.06
2022-12-08T12:37:48.036Z,85.93
2022-12-08T12:41:07.230Z,86.56
2022-12-08T12:44:47.433Z,89.45
2022-12-08T12:48:19.529Z,92.85
2022-12-08T12:51:57.414Z,92.75
2022-12-08T12:55:28.522Z,88.91
2022-12-08T12:58:48.979Z,88.06
2022-12-08T13:02:02.729Z,88.86
2022-12-08T13:05:22.161Z,89.24
2022-12-08T13:08:35.281Z,94.10
2022-12-08T13:12:00.074Z,98.33
2022-12-08T13:15:23.348Z,97.96
2022-12-08T13:18:39.988Z,98.48
2022-12-08T13:21:52.125Z,98.37
2022-12-08T13:25:36.812Z,98.39
2022-12-08T13:29:25.380Z,99.30
2022-12-08T13:33:17.638Z,99.18
2022-12-08T13:36:32.262Z,99.39
2022-12-08T13:39:51.466Z,97.88
2022-12-08T13:43:10.587Z,97.17
2022-12-08T13:47:09.329Z,98.84
2022-12-08T13:51:24.132Z,97.66
2022-12-08T13:53:41.962Z,97.41
2022-12-08T13:57:00.882Z,96.86
2022-12-08T13:59:40.342Z,97.65
2022-12-08T14:02:55.007Z,97.21
2022-12-08T14:06:13.024Z,98.09
2022-12-08T14:09:28.311Z,100.00
2022-12-08T14:12:40.751Z,100.00
2022-12-08T14:15:52.715Z,100.00
2022-12-08T14:19:16.024Z,100.00
2022-12-08T14:22:28.516Z,100.00
2022-12-08T14:25:41.491Z,100.00
2022-12-08T14:28:55.450Z,100.00
2022-12-08T14:32:07.693Z,100.00
2022-12-08T14:35:29.792Z,100.00
2022-12-08T14:38:41.743Z,100.00
2022-12-08T14:42:07.742Z,100.00
2022-12-08T14:45:22.570Z,100.00
2022-12-08T14:48:46.298Z,100.00
2022-12-08T14:51:58.392Z,100.00
2022-12-08T14:55:12.726Z,100.00
2022-12-08T14:58:32.100Z,100.00
2022-12-08T15:01:44.850Z,100.00
2022-12-08T15:05:01.285Z,100.00
2022-12-08T15:08:16.914Z,100.00
2022-12-08T15:11:40.423Z,100.00
2022-12-08T15:15:02.960Z,100.00
2022-12-08T15:18:22.117Z,100.00
2022-12-08T15:21:39.709Z,100.00
2022-12-08T15:24:52.618Z,100.00
2022-12-08T15:28:05.187Z,100.00
2022-12-08T15:31:19.669Z,100.00
2022-12-08T15:34:33.423Z,99.92
2022-12-08T15:37:46.874Z,100.00
2022-12-08T15:40:59.887Z,100.00
2022-12-08T15:44:12.280Z,100.00
2022-12-08T15:47:28.647Z,100.00
2022-12-08T15:50:40.685Z,100.00
2022-12-08T15:53:52.707Z,100.00
2022-12-08T15:57:22.212Z,100.00
2022-12-08T16:00:54.698Z,100.00
2022-12-08T16:07:21.532Z,100.00
2022-12-08T16:10:24.892Z,100.00
2022-12-08T16:14:08.082Z,100.00
2022-12-08T16:17:12.236Z,100.00
2022-12-08T16:20:44.039Z,100.00
2022-12-08T16:23:44.296Z,100.00
2022-12-08T16:30:10.084Z,100.00
2022-12-08T16:33:22.462Z,100.00
2022-12-08T16:36:34.432Z,100.00
2022-12-08T16:39:46.642Z,100.00
2022-12-08T16:42:58.601Z,100.00
2022-12-08T16:46:10.598Z,100.00
2022-12-08T16:49:22.518Z,100.00
2022-12-08T16:52:34.402Z,100.00
2022-12-08T16:55:51.334Z,100.00
2022-12-08T16:59:03.263Z,100.00
2022-12-08T17:02:16.693Z,100.00
2022-12-08T17:05:30.830Z,100.00
2022-12-08T17:08:43.112Z,100.00
2022-12-08T17:11:58.813Z,100.00
2022-12-08T17:15:11.168Z,100.00
2022-12-08T17:18:23.039Z,100.00
2022-12-08T17:21:35.589Z,100.00
2022-12-08T17:24:47.527Z,100.00
2022-12-08T17:28:00.331Z,100.00
2022-12-08T17:31:22.234Z,100.00
2022-12-08T17:34:35.079Z,100.00
2022-12-08T17:37:47.223Z,100.00
2022-12-08T17:40:59.083Z,100.00
2022-12-08T17:44:16.987Z,100.00
2022-12-08T17:47:29.161Z,100.00
2022-12-08T17:50:43.795Z,100.00
2022-12-08T17:53:55.669Z,100.00
2022-12-08T17:57:07.701Z,100.00
2022-12-08T18:00:21.844Z,100.00
2022-12-08T18:03:33.754Z,100.00
2022-12-08T18:06:46.997Z,100.00
2022-12-08T18:09:59.130Z,100.00
2022-12-08T18:13:11.942Z,100.00
2022-12-08T18:16:26.824Z,100.00
2022-12-08T18:19:38.783Z,100.00
2022-12-08T18:22:50.878Z,100.00
2022-12-08T18:26:02.903Z,100.00
2022-12-08T18:29:14.767Z,100.00
2022-12-08T18:32:26.920Z,100.00
2022-12-08T18:35:39.510Z,100.00
2022-12-08T18:38:51.600Z,100.00
2022-12-08T18:42:07.499Z,98.77
2022-12-08T18:45:22.543Z,96.45
2022-12-08T18:48:35.256Z,95.22
2022-12-08T18:51:47.993Z,97.34
2022-12-08T18:58:03.454Z,94.67
2022-12-08T19:01:19.509Z,93.33
2022-12-08T19:04:34.685Z,92.30
2022-12-08T19:07:46.690Z,91.53
2022-12-08T19:10:58.809Z,90.94
2022-12-08T19:14:10.897Z,91.25
2022-12-08T19:17:22.963Z,91.32
2022-12-08T19:20:35.744Z,90.83
2022-12-08T19:23:49.249Z,91.30
2022-12-08T19:27:01.330Z,91.44
2022-12-08T19:30:16.840Z,92.08
2022-12-08T19:33:28.758Z,91.89
2022-12-08T19:36:42.726Z,93.40
2022-12-08T19:40:09.465Z,94.12
2022-12-08T19:43:47.882Z,93.47
2022-12-08T19:46:59.972Z,92.87
2022-12-08T19:50:30.314Z,92.78
2022-12-08T19:53:47.345Z,92.31
2022-12-08T19:56:56.323Z,91.84
2022-12-08T20:00:09.266Z,92.20
2022-12-08T20:03:25.726Z,92.14
2022-12-08T20:06:38.284Z,92.84
2022-12-08T20:09:50.384Z,92.09
2022-12-08T20:13:13.372Z,91.54
2022-12-08T20:16:25.755Z,91.58
2022-12-08T20:19:37.907Z,91.38
2022-12-08T20:22:49.969Z,91.84
2022-12-08T20:26:02.120Z,91.35
2022-12-08T20:29:16.363Z,91.09
2022-12-08T20:32:28.450Z,91.99
2022-12-08T20:35:40.582Z,93.04
2022-12-08T20:38:53.959Z,92.77
2022-12-08T20:42:06.088Z,92.70
2022-12-08T20:45:18.392Z,93.02
2022-12-08T20:48:30.505Z,92.59
2022-12-08T20:51:42.772Z,92.68
2022-12-08T20:54:56.018Z,92.55
2022-12-08T20:58:08.262Z,93.32
2022-12-08T21:01:24.238Z,93.45
2022-12-08T21:04:36.533Z,93.12
2022-12-08T21:07:49.409Z,93.25
2022-12-08T21:11:04.753Z,93.11
2022-12-08T21:14:17.399Z,93.46
2022-12-08T21:17:29.650Z,93.61
2022-12-08T21:20:42.039Z,93.68
2022-12-08T21:23:54.189Z,93.45
2022-12-08T21:27:06.187Z,94.02
2022-12-08T21:30:21.167Z,93.57
2022-12-08T21:33:33.242Z,92.69
2022-12-08T21:36:45.459Z,92.58
2022-12-08T21:39:57.845Z,92.49
2022-12-08T21:43:10.161Z,92.77
2022-12-08T21:46:26.831Z,92.46
2022-12-08T21:49:40.462Z,92.33
2022-12-08T21:52:54.392Z,92.33
2022-12-08T21:56:06.434Z,92.30
2022-12-08T21:59:19.061Z,91.99
2022-12-08T22:02:31.491Z,91.93
2022-12-08T22:05:44.399Z,92.12
2022-12-08T22:08:56.354Z,92.06
2022-12-08T22:12:08.741Z,92.19
2022-12-08T22:15:21.132Z,91.91
2022-12-08T22:18:33.404Z,91.71
2022-12-08T22:21:47.368Z,92.46
2022-12-08T22:25:00.423Z,93.95
2022-12-08T22:28:13.353Z,91.71
2022-12-08T22:31:26.997Z,93.50
2022-12-08T22:34:39.369Z,96.76
2022-12-08T22:37:53.531Z,95.14
2022-12-08T22:41:05.817Z,95.86
2022-12-08T22:44:20.190Z,94.34
2022-12-08T22:47:32.398Z,91.81
2022-12-08T22:50:44.838Z,93.22
2022-12-08T22:53:58.082Z,91.56
2022-12-08T22:57:10.270Z,91.84
2022-12-08T23:00:24.639Z,97.94
2022-12-08T23:03:37.305Z,100.00
2022-12-08T23:06:49.477Z,100.00
2022-12-08T23:10:01.828Z,100.00
2022-12-08T23:13:14.336Z,100.00
2022-12-08T23:16:26.748Z,100.00
2022-12-08T23:19:41.317Z,100.00
2022-12-08T23:22:53.389Z,100.00
2022-12-08T23:26:05.681Z,100.00
2022-12-08T23:29:18.311Z,100.00
2022-12-08T23:32:30.871Z,100.00
2022-12-08T23:35:43.587Z,100.00
2022-12-08T23:38:56.523Z,100.00
2022-12-08T23:42:09.081Z,100.00
2022-12-08T23:45:21.681Z,100.00
2022-12-08T23:48:36.132Z,100.00
2022-12-08T23:51:48.728Z,100.00
2022-12-08T23:55:01.076Z,100.00
2022-12-08T23:58:13.205Z,100.00
